createdAt,value
2018-10-16T00:00:47.066Z,37.70
2018-10-16T00:03:17.366Z,42.97
2018-10-16T00:05:47.648Z,35.47
2018-10-16T00:08:17.955Z,37.43
2018-10-16T00:10:48.266Z,41.13
2018-10-16T00:13:18.562Z,33.77
2018-10-16T00:15:48.827Z,36.60
2018-10-16T00:18:19.131Z,38.20
2018-10-16T00:20:49.395Z,35.57
2018-10-16T00:23:19.695Z,36.40
2018-10-16T00:25:49.979Z,37.20
2018-10-16T00:28:20.278Z,38.97
2018-10-16T00:30:50.553Z,35.80
2018-10-16T00:33:20.890Z,36.97
2018-10-16T00:35:51.175Z,37.10
2018-10-16T00:38:21.524Z,36.27
2018-10-16T00:40:52.077Z,31.70
2018-10-16T00:43:22.369Z,34.27
2018-10-16T00:45:52.647Z,35.60
2018-10-16T00:48:22.939Z,35.80
2018-10-16T00:50:53.207Z,34.23
2018-10-16T00:53:23.878Z,35.10
2018-10-16T00:55:54.151Z,36.00
2018-10-16T00:58:24.525Z,38.50
2018-10-16T01:00:56.316Z,39.00
2018-10-16T01:03:27.683Z,37.13
2018-10-16T01:05:58.146Z,37.73
2018-10-16T01:08:28.416Z,36.57
2018-10-16T01:10:58.687Z,35.30
2018-10-16T01:13:29.070Z,34.47
2018-10-16T01:15:59.332Z,34.47
2018-10-16T01:18:29.659Z,36.27
2018-10-16T01:20:59.933Z,39.90
2018-10-16T01:23:30.206Z,33.10
2018-10-16T01:26:00.475Z,40.00
2018-10-16T01:28:30.754Z,35.33
2018-10-16T01:31:01.042Z,38.27
2018-10-16T01:33:31.400Z,37.13
2018-10-16T01:36:01.665Z,37.27
2018-10-16T01:38:31.991Z,37.00
2018-10-16T01:41:02.270Z,37.13
2018-10-16T01:43:32.562Z,36.47
2018-10-16T01:46:02.823Z,34.07
2018-10-16T01:48:33.108Z,34.57
2018-10-16T01:51:03.386Z,37.57
2018-10-16T01:53:33.670Z,38.17
2018-10-16T01:56:03.911Z,42.13
2018-10-16T01:58:34.180Z,36.30
2018-10-16T02:01:04.471Z,37.48
2018-10-16T02:03:35.127Z,39.37
2018-10-16T02:06:05.539Z,43.13
2018-10-16T02:08:36.300Z,36.30
2018-10-16T02:11:06.765Z,35.63
2018-10-16T02:13:37.147Z,35.67
2018-10-16T02:16:07.439Z,36.98
2018-10-16T02:18:37.743Z,36.17
2018-10-16T02:21:08.019Z,35.37
2018-10-16T02:23:38.555Z,36.07
2018-10-16T02:26:08.834Z,42.30
2018-10-16T02:28:39.139Z,43.80
2018-10-16T02:31:09.440Z,37.80
2018-10-16T02:33:39.753Z,36.97
2018-10-16T02:36:09.994Z,39.87
2018-10-16T02:38:40.294Z,37.03
2018-10-16T02:41:10.565Z,38.57
2018-10-16T02:43:41.018Z,42.40
2018-10-16T02:46:11.302Z,37.08
2018-10-16T02:48:41.589Z,40.03
2018-10-16T02:51:11.843Z,39.73
2018-10-16T02:53:42.146Z,38.60
2018-10-16T02:56:12.426Z,45.08
2018-10-16T02:58:42.885Z,40.20
2018-10-16T03:01:13.151Z,39.57
2018-10-16T03:03:43.843Z,38.35
2018-10-16T03:06:14.105Z,43.78
2018-10-16T03:08:44.394Z,36.90
2018-10-16T03:11:14.691Z,36.70
2018-10-16T03:13:44.984Z,38.75
2018-10-16T03:16:15.243Z,35.70
2018-10-16T03:18:45.551Z,34.48
2018-10-16T03:21:15.829Z,31.05
2018-10-16T03:23:46.109Z,29.82
2018-10-16T03:26:16.363Z,30.57
2018-10-16T03:28:46.650Z,32.67
2018-10-16T03:31:16.916Z,35.92
2018-10-16T03:33:47.507Z,39.00
2018-10-16T03:36:17.750Z,39.13
2018-10-16T03:38:48.032Z,37.37
2018-10-16T03:41:19.153Z,39.08
2018-10-16T03:43:59.808Z,38.13
2018-10-16T03:46:30.464Z,43.63
2018-10-16T03:49:00.966Z,40.63
2018-10-16T03:51:31.584Z,37.05
2018-10-16T03:54:01.903Z,38.78
2018-10-16T03:56:32.278Z,44.15
2018-10-16T03:59:02.638Z,45.90
2018-10-16T04:01:32.893Z,44.60
2018-10-16T04:04:03.174Z,49.27
2018-10-16T04:06:33.466Z,47.33
2018-10-16T04:09:03.926Z,46.35
2018-10-16T04:11:34.586Z,45.90
2018-10-16T04:14:04.972Z,57.55
2018-10-16T04:16:35.421Z,56.02
2018-10-16T04:19:06.228Z,54.53
2018-10-16T04:21:52.252Z,51.83
2018-10-16T04:24:22.528Z,50.78
2018-10-16T04:26:52.818Z,52.35
2018-10-16T04:29:23.111Z,52.70
2018-10-16T04:31:53.394Z,51.00
2018-10-16T04:34:23.765Z,49.60
2018-10-16T04:36:54.005Z,39.13
2018-10-16T04:39:24.281Z,39.60
2018-10-16T04:41:54.863Z,40.78
2018-10-16T04:44:25.153Z,44.95
2018-10-16T04:46:55.834Z,44.73
2018-10-16T04:49:26.191Z,49.90
2018-10-16T04:51:56.379Z,46.55
2018-10-16T04:54:26.958Z,48.85
2018-10-16T04:56:57.264Z,53.65
2018-10-16T04:59:27.665Z,53.25
2018-10-16T05:01:57.998Z,52.55
2018-10-16T05:04:28.374Z,55.50
2018-10-16T05:06:59.159Z,60.05
2018-10-16T05:09:30.095Z,54.20
2018-10-16T05:12:00.954Z,57.80
2018-10-16T05:14:31.431Z,53.58
2018-10-16T05:17:13.203Z,53.65
2018-10-16T05:19:47.353Z,52.83
2018-10-16T05:22:17.606Z,52.70
2018-10-16T05:24:47.884Z,49.27
2018-10-16T05:27:18.172Z,48.55
2018-10-16T05:29:48.470Z,54.27
2018-10-16T05:32:18.761Z,53.13
2018-10-16T05:34:49.025Z,48.78
2018-10-16T05:37:19.281Z,52.05
2018-10-16T05:39:49.924Z,51.85
2018-10-16T05:42:20.163Z,51.88
2018-10-16T05:44:50.449Z,47.70
2018-10-16T05:47:20.715Z,46.37
2018-10-16T05:49:51.006Z,51.13
2018-10-16T05:52:21.262Z,48.63
2018-10-16T05:54:51.877Z,56.00
2018-10-16T05:57:22.131Z,46.98
2018-10-16T06:00:00.414Z,47.55
2018-10-16T06:02:30.885Z,50.28
2018-10-16T06:05:01.147Z,49.65
2018-10-16T06:07:31.924Z,56.95
2018-10-16T06:10:02.257Z,52.98
2018-10-16T06:12:32.906Z,46.80
2018-10-16T06:15:03.663Z,41.92
2018-10-16T06:17:34.063Z,45.30
2018-10-16T06:20:04.550Z,43.63
2018-10-16T06:22:35.017Z,39.27
2018-10-16T06:25:06.350Z,42.87
2018-10-16T06:27:36.625Z,43.47
2018-10-16T06:30:07.194Z,46.63
2018-10-16T06:32:37.823Z,50.53
2018-10-16T06:35:09.438Z,51.47
2018-10-16T06:37:39.824Z,53.33
2018-10-16T06:40:10.870Z,52.53
2018-10-16T06:42:41.271Z,45.27
2018-10-16T06:45:11.931Z,46.50
2018-10-16T06:47:42.238Z,43.23
2018-10-16T06:50:12.532Z,57.37
2018-10-16T06:52:43.306Z,53.03
2018-10-16T06:55:13.701Z,54.07
2018-10-16T06:57:44.106Z,64.53
2018-10-16T07:00:14.425Z,56.70
2018-10-16T07:02:44.786Z,54.60
2018-10-16T07:05:15.086Z,48.60
2018-10-16T07:07:45.399Z,47.90
2018-10-16T07:10:15.645Z,41.60
2018-10-16T07:12:46.032Z,47.30
2018-10-16T07:15:16.311Z,44.17
2018-10-16T07:17:46.628Z,39.73
2018-10-16T07:20:16.956Z,38.20
2018-10-16T07:22:47.238Z,42.30
2018-10-16T07:25:17.488Z,41.03
2018-10-16T07:27:47.787Z,38.70
2018-10-16T07:30:18.031Z,40.40
2018-10-16T07:32:48.347Z,40.17
2018-10-16T07:35:18.619Z,36.90
2018-10-16T07:37:48.954Z,40.10
2018-10-16T07:40:19.202Z,37.33
2018-10-16T07:42:49.495Z,37.93
2018-10-16T07:45:19.753Z,35.53
2018-10-16T07:47:50.029Z,39.40
2018-10-16T07:50:20.304Z,34.13
2018-10-16T07:52:50.583Z,32.50
2018-10-16T07:55:20.847Z,40.47
2018-10-16T07:57:51.176Z,51.57
2018-10-16T08:00:21.457Z,61.50
2018-10-16T08:02:51.742Z,46.30
2018-10-16T08:05:22.049Z,50.03
2018-10-16T08:07:52.342Z,41.13
2018-10-16T08:10:22.667Z,41.97
2018-10-16T08:12:52.917Z,46.10
2018-10-16T08:15:23.227Z,46.07
2018-10-16T08:17:53.512Z,46.10
2018-10-16T08:20:23.794Z,37.90
2018-10-16T08:22:54.086Z,38.80
2018-10-16T08:25:24.371Z,37.80
2018-10-16T08:27:54.747Z,40.60
2018-10-16T08:30:25.046Z,39.70
2018-10-16T08:32:55.336Z,36.90
2018-10-16T08:35:25.579Z,40.40
2018-10-16T08:38:42.403Z,40.20
2018-10-16T08:41:14.776Z,38.80
2018-10-16T08:45:05.190Z,40.50
2018-10-16T08:47:52.253Z,37.83
2018-10-16T08:51:56.861Z,42.80
2018-10-16T08:54:27.215Z,41.07
2018-10-16T08:56:58.171Z,40.17
2018-10-16T08:59:28.462Z,33.47
2018-10-16T09:01:58.820Z,39.73
2018-10-16T09:04:29.234Z,37.40
2018-10-16T09:06:59.872Z,34.10
2018-10-16T09:09:30.158Z,38.57
2018-10-16T09:12:00.917Z,35.97
2018-10-16T09:14:31.541Z,38.53
2018-10-16T09:17:01.750Z,36.67
2018-10-16T09:19:32.087Z,38.43
2018-10-16T09:22:02.751Z,36.77
2018-10-16T09:24:33.366Z,34.87
2018-10-16T09:27:03.586Z,34.47
2018-10-16T09:29:34.013Z,37.40
2018-10-16T09:32:04.284Z,32.00
2018-10-16T09:34:34.745Z,33.77
2018-10-16T09:37:05.014Z,37.43
2018-10-16T09:39:35.366Z,31.67
2018-10-16T09:42:05.806Z,31.10
2018-10-16T09:44:36.101Z,29.40
2018-10-16T09:47:06.414Z,26.60
2018-10-16T09:49:36.901Z,28.97
2018-10-16T09:52:07.155Z,29.93
2018-10-16T09:54:37.426Z,39.00
2018-10-16T09:57:07.685Z,31.40
2018-10-16T09:59:37.971Z,29.43
2018-10-16T10:02:08.255Z,32.27
2018-10-16T10:04:38.607Z,34.33
2018-10-16T10:07:08.894Z,32.50
2018-10-16T10:09:39.179Z,27.77
2018-10-16T10:12:09.417Z,29.03
2018-10-16T10:14:39.689Z,25.20
2018-10-16T10:17:09.966Z,32.53
2018-10-16T10:19:40.243Z,28.80
2018-10-16T10:22:10.623Z,32.37
2018-10-16T10:24:41.089Z,31.57
2018-10-16T10:27:11.414Z,28.10
2018-10-16T10:29:42.041Z,26.80
2018-10-16T10:32:12.186Z,27.43
2018-10-16T10:34:43.166Z,28.57
2018-10-16T10:37:13.424Z,31.27
2018-10-16T10:39:43.745Z,27.17
2018-10-16T10:42:14.032Z,27.50
2018-10-16T10:44:44.762Z,24.30
2018-10-16T10:47:15.020Z,25.00
2018-10-16T10:49:45.377Z,24.90
2018-10-16T10:52:15.616Z,24.93
2018-10-16T10:54:45.918Z,23.33
2018-10-16T10:57:16.267Z,25.50
2018-10-16T10:59:47.009Z,25.73
2018-10-16T11:02:17.263Z,23.33
2018-10-16T11:04:47.554Z,26.70
2018-10-16T11:07:17.817Z,23.10
2018-10-16T11:09:48.782Z,24.03
2018-10-16T11:12:19.068Z,29.20
2018-10-16T11:14:49.331Z,27.00
2018-10-16T11:17:19.626Z,23.40
2018-10-16T11:19:49.874Z,27.43
2018-10-16T11:22:20.165Z,24.80
2018-10-16T11:24:50.440Z,26.80
2018-10-16T11:27:20.998Z,30.30
2018-10-16T11:29:51.265Z,23.50
2018-10-16T11:32:21.599Z,27.83
2018-10-16T11:34:51.918Z,25.33
2018-10-16T11:37:22.215Z,27.20
2018-10-16T11:39:52.513Z,25.03
2018-10-16T11:42:22.762Z,26.00
2018-10-16T11:44:53.086Z,25.63
2018-10-16T11:47:23.332Z,29.20
2018-10-16T11:49:53.669Z,27.97
2018-10-16T11:52:23.963Z,28.70
2018-10-16T11:54:54.246Z,24.37
2018-10-16T11:57:24.507Z,24.67
2018-10-16T11:59:54.854Z,29.80
2018-10-16T12:02:25.167Z,28.37
2018-10-16T12:04:55.547Z,24.20
2018-10-16T12:07:26.166Z,25.20
2018-10-16T12:09:57.110Z,30.07
2018-10-16T12:12:27.385Z,26.97
2018-10-16T12:14:58.069Z,29.17
2018-10-16T12:17:33.013Z,28.50
2018-10-16T12:20:09.798Z,25.47
2018-10-16T12:22:40.069Z,28.37
2018-10-16T12:25:10.565Z,27.53
2018-10-16T12:27:40.743Z,23.57
2018-10-16T12:30:11.186Z,28.17
2018-10-16T12:32:41.907Z,28.23
2018-10-16T12:35:12.195Z,26.73
2018-10-16T12:37:42.466Z,25.17
2018-10-16T12:40:12.806Z,27.33
2018-10-16T12:42:43.313Z,24.50
2018-10-16T12:45:13.814Z,24.40
2018-10-16T12:47:44.131Z,23.87
2018-10-16T12:50:14.436Z,24.57
2018-10-16T12:52:44.807Z,23.70
2018-10-16T12:55:15.097Z,24.50
2018-10-16T12:57:46.008Z,24.50
2018-10-16T13:00:16.362Z,22.97
2018-10-16T13:02:46.595Z,23.57
2018-10-16T13:05:16.937Z,23.77
2018-10-16T13:07:47.190Z,24.47
2018-10-16T13:10:18.519Z,21.67
2018-10-16T13:12:48.805Z,24.07
2018-10-16T13:15:19.109Z,21.47
2018-10-16T13:17:49.362Z,26.67
2018-10-16T13:20:19.604Z,23.33
2018-10-16T13:22:50.432Z,22.70
2018-10-16T13:25:20.666Z,23.43
2018-10-16T13:27:50.989Z,23.83
2018-10-16T13:30:21.406Z,22.57
2018-10-16T13:32:52.232Z,22.93
2018-10-16T13:35:22.625Z,22.40
2018-10-16T13:37:52.891Z,23.50
2018-10-16T13:40:23.196Z,22.23
2018-10-16T13:42:53.496Z,25.33
2018-10-16T13:45:23.788Z,23.97
2018-10-16T13:47:54.051Z,22.40
2018-10-16T13:50:24.357Z,23.63
2018-10-16T13:52:54.899Z,22.00
2018-10-16T13:55:26.279Z,22.40
2018-10-16T13:57:56.877Z,24.13
2018-10-16T14:00:27.217Z,20.83
2018-10-16T14:02:58.081Z,21.90
2018-10-16T14:05:29.075Z,21.00
2018-10-16T14:07:59.749Z,23.00
2018-10-16T14:10:30.203Z,27.40
2018-10-16T14:13:00.455Z,25.63
2018-10-16T14:15:30.928Z,26.67
2018-10-16T14:18:01.223Z,24.03
2018-10-16T14:20:31.796Z,24.30
2018-10-16T14:23:02.051Z,22.90
2018-10-16T14:25:32.390Z,24.33
2018-10-16T14:28:02.818Z,23.23
2018-10-16T14:30:33.206Z,25.80
2018-10-16T14:33:03.502Z,25.30
2018-10-16T14:35:33.770Z,24.97
2018-10-16T14:38:04.032Z,21.80
2018-10-16T14:40:34.348Z,22.07
2018-10-16T14:43:04.613Z,23.57
2018-10-16T14:45:35.114Z,22.57
2018-10-16T14:48:05.597Z,24.30
2018-10-16T14:50:35.982Z,26.40
2018-10-16T14:53:06.439Z,24.63
2018-10-16T14:55:36.767Z,24.53
2018-10-16T14:58:07.096Z,22.17
2018-10-16T15:00:37.354Z,22.57
2018-10-16T15:03:07.630Z,21.53
2018-10-16T15:05:37.958Z,27.90
2018-10-16T15:08:08.267Z,22.63
2018-10-16T15:10:38.552Z,21.90
2018-10-16T15:13:08.862Z,23.30
2018-10-16T15:15:39.144Z,22.33
2018-10-16T15:18:09.523Z,22.30
2018-10-16T15:20:39.866Z,21.00
2018-10-16T15:23:10.227Z,22.80
2018-10-16T15:25:40.548Z,23.43
2018-10-16T15:28:10.975Z,29.13
2018-10-16T15:30:41.281Z,25.00
2018-10-16T15:33:11.573Z,23.87
2018-10-16T15:35:42.108Z,22.30
2018-10-16T15:38:12.430Z,25.97
2018-10-16T15:40:42.762Z,21.40
2018-10-16T15:43:13.076Z,25.27
2018-10-16T15:45:43.439Z,23.60
2018-10-16T15:48:13.847Z,23.20
2018-10-16T15:50:44.387Z,23.17
2018-10-16T15:53:14.623Z,23.83
2018-10-16T15:55:44.998Z,21.90
2018-10-16T15:58:15.324Z,21.20
2018-10-16T16:00:45.567Z,22.90
2018-10-16T16:03:15.834Z,22.73
2018-10-16T16:05:46.150Z,23.17
2018-10-16T16:08:16.413Z,21.70
2018-10-16T16:10:47.053Z,23.60
2018-10-16T16:13:17.425Z,20.87
2018-10-16T16:15:47.734Z,21.70
2018-10-16T16:18:18.071Z,20.80
2018-10-16T16:20:48.323Z,21.03
2018-10-16T16:23:18.602Z,20.10
2018-10-16T16:25:48.991Z,20.77
2018-10-16T16:28:19.210Z,23.60
2018-10-16T16:30:49.510Z,21.10
2018-10-16T16:33:19.819Z,22.57
2018-10-16T16:35:50.105Z,20.43
2018-10-16T16:38:20.572Z,22.70
2018-10-16T16:40:50.867Z,21.67
2018-10-16T16:43:21.130Z,21.97
2018-10-16T16:45:51.438Z,20.33
2018-10-16T16:48:21.707Z,22.43
2018-10-16T16:50:52.013Z,22.97
2018-10-16T16:53:22.292Z,26.90
2018-10-16T16:55:52.684Z,22.33
2018-10-16T16:58:22.949Z,20.70
2018-10-16T17:00:53.271Z,20.30
2018-10-16T17:03:23.560Z,20.43
2018-10-16T17:05:53.833Z,21.20
2018-10-16T17:08:24.347Z,19.43
2018-10-16T17:10:55.278Z,24.30
2018-10-16T17:13:25.969Z,23.33
2018-10-16T17:15:57.406Z,22.60
2018-10-16T17:18:27.819Z,21.27
2018-10-16T17:20:58.103Z,23.20
2018-10-16T17:23:28.715Z,23.40
2018-10-16T17:25:59.201Z,22.67
2018-10-16T17:28:29.510Z,22.40
2018-10-16T17:30:59.920Z,21.03
2018-10-16T17:33:30.243Z,21.60
2018-10-16T17:36:00.536Z,20.90
2018-10-16T17:38:30.967Z,21.73
2018-10-16T17:41:02.063Z,21.50
2018-10-16T17:43:32.424Z,23.07
2018-10-16T17:46:02.759Z,20.27
2018-10-16T17:48:33.021Z,22.00
2018-10-16T17:51:03.347Z,19.57
2018-10-16T17:53:33.911Z,22.27
2018-10-16T17:56:04.231Z,24.17
2018-10-16T17:58:34.976Z,21.50
2018-10-16T18:01:05.650Z,21.33
2018-10-16T18:03:36.335Z,22.43
2018-10-16T18:06:06.939Z,23.73
2018-10-16T18:08:37.187Z,22.50
2018-10-16T18:11:07.523Z,24.33
2018-10-16T18:13:37.819Z,23.70
2018-10-16T18:16:08.359Z,21.33
2018-10-16T18:18:38.954Z,22.50
2018-10-16T18:21:09.421Z,23.77
2018-10-16T18:23:40.001Z,23.53
2018-10-16T18:26:10.479Z,22.10
2018-10-16T18:28:40.824Z,21.63
2018-10-16T18:31:11.466Z,23.87
2018-10-16T18:33:43.040Z,24.50
2018-10-16T18:36:13.372Z,24.20
2018-10-16T18:38:43.954Z,26.10
2018-10-16T18:41:15.074Z,23.67
2018-10-16T18:43:45.395Z,23.90
2018-10-16T18:46:15.755Z,29.33
2018-10-16T18:48:46.725Z,28.20
2018-10-16T18:51:17.327Z,28.23
2018-10-16T18:53:47.702Z,25.80
2018-10-16T18:56:20.004Z,25.33
2018-10-16T18:58:50.384Z,24.80
2018-10-16T19:01:22.426Z,25.03
2018-10-16T19:03:52.870Z,22.70
2018-10-16T19:06:23.303Z,23.80
2018-10-16T19:08:53.741Z,24.83
2018-10-16T19:11:24.236Z,26.10
2018-10-16T19:13:55.662Z,25.70
2018-10-16T19:16:26.147Z,25.53
2018-10-16T19:18:56.452Z,25.67
2018-10-16T19:21:28.099Z,31.77
2018-10-16T19:23:59.083Z,27.17
2018-10-16T19:26:29.515Z,25.23
2018-10-16T19:29:00.025Z,25.97
2018-10-16T19:31:30.346Z,26.90
2018-10-16T19:34:01.302Z,28.40
2018-10-16T19:36:32.089Z,27.77
2018-10-16T19:39:02.535Z,25.87
2018-10-16T19:41:33.113Z,28.63
2018-10-16T19:44:03.470Z,26.03
2018-10-16T19:46:34.063Z,27.47
2018-10-16T19:49:04.391Z,26.53
2018-10-16T19:51:34.891Z,25.60
2018-10-16T19:54:05.836Z,31.83
2018-10-16T19:56:36.668Z,27.93
2018-10-16T19:59:07.333Z,28.40
2018-10-16T20:01:37.990Z,30.57
2018-10-16T20:04:08.326Z,27.60
2018-10-16T20:06:38.598Z,31.13
2018-10-16T20:09:10.832Z,28.57
2018-10-16T20:11:41.182Z,29.03
2018-10-16T20:14:11.501Z,27.10
2018-10-16T20:16:41.766Z,24.50
2018-10-16T20:19:12.019Z,30.50
2018-10-16T20:21:42.842Z,30.17
2018-10-16T20:24:13.115Z,32.07
2018-10-16T20:26:43.456Z,28.40
2018-10-16T20:29:13.749Z,27.33
2018-10-16T20:31:44.762Z,29.90
2018-10-16T20:34:15.119Z,33.33
2018-10-16T20:36:45.398Z,27.87
2018-10-16T20:39:15.695Z,29.37
2018-10-16T20:41:46.045Z,31.97
2018-10-16T20:44:16.382Z,28.87
2018-10-16T20:46:46.809Z,25.90
2018-10-16T20:49:18.369Z,32.83
2018-10-16T20:51:48.708Z,29.70
2018-10-16T20:54:19.972Z,27.53
2018-10-16T20:56:50.332Z,27.67
2018-10-16T20:59:20.619Z,28.43
2018-10-16T21:01:51.387Z,29.70
2018-10-16T21:04:21.687Z,30.53
2018-10-16T21:06:52.674Z,30.83
2018-10-16T21:09:22.970Z,29.43
2018-10-16T21:11:53.430Z,33.03
2018-10-16T21:14:23.858Z,32.90
2018-10-16T21:16:54.114Z,32.10
2018-10-16T21:19:24.451Z,34.00
2018-10-16T21:21:54.935Z,32.37
2018-10-16T21:24:25.398Z,32.50
2018-10-16T21:27:08.598Z,31.77
2018-10-16T21:29:38.910Z,31.60
2018-10-16T21:32:09.745Z,33.63
2018-10-16T21:34:40.695Z,36.20
2018-10-16T21:37:11.040Z,34.20
2018-10-16T21:39:41.538Z,32.10
2018-10-16T21:42:12.715Z,32.27
2018-10-16T21:44:44.814Z,29.23
2018-10-16T21:47:15.962Z,28.70
2018-10-16T21:49:47.228Z,31.13
2018-10-16T21:52:17.491Z,30.00
2018-10-16T21:54:47.781Z,34.20
2018-10-16T21:57:26.586Z,32.10
2018-10-16T21:59:57.078Z,31.30
2018-10-16T22:02:33.090Z,30.30
2018-10-16T22:05:03.412Z,35.27
2018-10-16T22:07:34.079Z,37.73
2018-10-16T22:10:04.615Z,34.73
2018-10-16T22:12:35.080Z,39.83
2018-10-16T22:15:05.509Z,37.67
2018-10-16T22:17:35.978Z,37.17
2018-10-16T22:20:06.822Z,35.80
2018-10-16T22:22:37.158Z,35.93
2018-10-16T22:25:07.490Z,37.03
2018-10-16T22:27:37.763Z,30.60
2018-10-16T22:30:09.172Z,29.93
2018-10-16T22:32:39.525Z,29.60
2018-10-16T22:35:11.374Z,33.53
2018-10-16T22:37:41.633Z,30.97
2018-10-16T22:40:11.924Z,31.97
2018-10-16T22:42:42.217Z,36.43
2018-10-16T22:45:12.470Z,34.53
2018-10-16T22:47:42.886Z,36.40
2018-10-16T22:50:13.654Z,40.23
2018-10-16T22:52:44.295Z,37.57
2018-10-16T22:55:14.687Z,38.73
2018-10-16T22:57:46.818Z,37.93
2018-10-16T23:00:18.125Z,42.53
2018-10-16T23:02:48.981Z,35.87
2018-10-16T23:05:19.253Z,37.90
2018-10-16T23:07:49.546Z,38.63
2018-10-16T23:10:19.797Z,43.80
2018-10-16T23:12:55.466Z,45.73
2018-10-16T23:15:25.806Z,38.37
2018-10-16T23:17:56.071Z,43.17
2018-10-16T23:20:26.443Z,37.57
2018-10-16T23:22:57.105Z,36.90
2018-10-16T23:25:27.677Z,42.33
2018-10-16T23:27:57.970Z,43.80
2018-10-16T23:30:28.533Z,37.80
2018-10-16T23:32:58.979Z,39.17
2018-10-16T23:35:29.461Z,38.67
2018-10-16T23:37:59.819Z,39.30
2018-10-16T23:40:30.114Z,32.17
2018-10-16T23:43:00.418Z,31.23
2018-10-16T23:45:30.861Z,31.10
2018-10-16T23:48:01.145Z,33.03
2018-10-16T23:50:31.438Z,28.80
2018-10-16T23:53:01.747Z,28.63
2018-10-16T23:55:32.182Z,29.07
2018-10-16T23:58:02.447Z,29.00
